Terminal Aerodrome Forecast
Issued by NWS

Home | Current Version | Previous Version | Text Only | Print | Product List | Glossary On
Versions: 1 2 3 4 5 6 7 8 9 10 11 12 13 14 15 16 17 18
000
FTAK31 PAJN 202000 AAA
TAFAPG
TAF AMD
PAPG 202001Z 2020/2118 00000KT P6SM VCFG SCT003 BKN035
     FM210000 12008KT P6SM VCSH SCT020 BKN040
     FM210200 VRB04KT P6SM -RA SCT020 OVC040
     FM210700 11006KT 6SM -RA BR SCT020 OVC035
     FM211400 11009KT 6SM -RA BR SCT020 OVC030
      AMD LTD TO CLD VIS AND WIND 2106/2115=

USA.gov is the U.S. government's official web portal to all federal, state and local government web resources and services.